sensor_id;sensor_type;location;lat;lon;timestamp;P1;durP1;ratioP1;P2;durP2;ratioP2
29712;SDS011;16623;53.632;10.016;2023-02-01T00:01:54;39.85;;;7.43;;
29712;SDS011;16623;53.632;10.016;2023-02-01T00:04:20;37.40;;;5.88;;
29712;SDS011;16623;53.632;10.016;2023-02-01T00:06:46;16.27;;;3.60;;
29712;SDS011;16623;53.632;10.016;2023-02-01T00:09:11;35.03;;;4.43;;
29712;SDS011;16623;53.632;10.016;2023-02-01T00:11:37;16.38;;;4.88;;
29712;SDS011;16623;53.632;10.016;2023-02-01T00:14:02;31.63;;;5.45;;
29712;SDS011;16623;53.632;10.016;2023-02-01T00:16:29;23.63;;;4.75;;
29712;SDS011;16623;53.632;10.016;2023-02-01T00:18:59;26.40;;;4.28;;
29712;SDS011;16623;53.632;10.016;2023-02-01T00:21:25;26.08;;;5.57;;
29712;SDS011;16623;53.632;10.016;2023-02-01T00:23:51;43.47;;;7.80;;
29712;SDS011;16623;53.632;10.016;2023-02-01T00:28:59;41.75;;;8.43;;
29712;SDS011;16623;53.632;10.016;2023-02-01T00:31:26;39.67;;;5.38;;
29712;SDS011;16623;53.632;10.016;2023-02-01T00:33:51;36.30;;;5.55;;
29712;SDS011;16623;53.632;10.016;2023-02-01T00:36:17;46.53;;;5.10;;
29712;SDS011;16623;53.632;10.016;2023-02-01T00:38:42;41.03;;;5.43;;
29712;SDS011;16623;53.632;10.016;2023-02-01T00:41:12;37.80;;;6.47;;
29712;SDS011;16623;53.632;10.016;2023-02-01T00:43:39;25.55;;;5.45;;
29712;SDS011;16623;53.632;10.016;2023-02-01T00:46:05;41.47;;;6.25;;
29712;SDS011;16623;53.632;10.016;2023-02-01T00:48:30;31.35;;;5.95;;
29712;SDS011;16623;53.632;10.016;2023-02-01T00:51:00;38.88;;;5.40;;
29712;SDS011;16623;53.632;10.016;2023-02-01T00:53:27;45.85;;;7.97;;
29712;SDS011;16623;53.632;10.016;2023-02-01T00:55:52;43.22;;;8.48;;
29712;SDS011;16623;53.632;10.016;2023-02-01T00:58:18;45.22;;;10.70;;
29712;SDS011;16623;53.632;10.016;2023-02-01T01:00:43;55.90;;;10.85;;
29712;SDS011;16623;53.632;10.016;2023-02-01T01:03:09;36.08;;;6.18;;
29712;SDS011;16623;53.632;10.016;2023-02-01T01:08:10;28.25;;;4.75;;
29712;SDS011;16623;53.632;10.016;2023-02-01T01:10:35;42.83;;;5.80;;
29712;SDS011;16623;53.632;10.016;2023-02-01T01:13:01;48.13;;;8.10;;
29712;SDS011;16623;53.632;10.016;2023-02-01T01:15:26;46.05;;;8.38;;
29712;SDS011;16623;53.632;10.016;2023-02-01T01:17:52;45.03;;;5.82;;
29712;SDS011;16623;53.632;10.016;2023-02-01T01:20:18;39.42;;;5.57;;
29712;SDS011;16623;53.632;10.016;2023-02-01T01:22:46;44.17;;;9.50;;
29712;SDS011;16623;53.632;10.016;2023-02-01T01:25:12;45.88;;;7.80;;
29712;SDS011;16623;53.632;10.016;2023-02-01T01:27:37;44.08;;;7.03;;
29712;SDS011;16623;53.632;10.016;2023-02-01T01:30:04;42.45;;;5.88;;
29712;SDS011;16623;53.632;10.016;2023-02-01T01:32:30;48.90;;;8.25;;
29712;SDS011;16623;53.632;10.016;2023-02-01T01:34:55;46.95;;;6.90;;
29712;SDS011;16623;53.632;10.016;2023-02-01T01:37:21;49.63;;;7.15;;
29712;SDS011;16623;53.632;10.016;2023-02-01T01:39:47;35.15;;;5.88;;
29712;SDS011;16623;53.632;10.016;2023-02-01T01:42:12;57.05;;;8.10;;
29712;SDS011;16623;53.632;10.016;2023-02-01T01:45:01;38.60;;;6.78;;
29712;SDS011;16623;53.632;10.016;2023-02-01T01:47:29;43.75;;;8.00;;
29712;SDS011;16623;53.632;10.016;2023-02-01T01:50:01;30.98;;;5.72;;
29712;SDS011;16623;53.632;10.016;2023-02-01T01:52:28;51.70;;;9.82;;
29712;SDS011;16623;53.632;10.016;2023-02-01T01:54:53;45.03;;;8.80;;
29712;SDS011;16623;53.632;10.016;2023-02-01T01:57:26;47.38;;;8.02;;
29712;SDS011;16623;53.632;10.016;2023-02-01T01:59:59;35.35;;;7.70;;
29712;SDS011;16623;53.632;10.016;2023-02-01T02:02:30;58.83;;;9.32;;
29712;SDS011;16623;53.632;10.016;2023-02-01T02:04:56;42.03;;;6.40;;
29712;SDS011;16623;53.632;10.016;2023-02-01T02:07:25;38.92;;;5.95;;
29712;SDS011;16623;53.632;10.016;2023-02-01T02:09:53;56.00;;;8.27;;
29712;SDS011;16623;53.632;10.016;2023-02-01T02:12:19;57.85;;;7.75;;
29712;SDS011;16623;53.632;10.016;2023-02-01T02:14:45;44.75;;;7.18;;
29712;SDS011;16623;53.632;10.016;2023-02-01T02:17:18;47.70;;;7.63;;
29712;SDS011;16623;53.632;10.016;2023-02-01T02:25:29;37.15;;;6.15;;
29712;SDS011;16623;53.632;10.016;2023-02-01T02:33:47;41.17;;;5.60;;
29712;SDS011;16623;53.632;10.016;2023-02-01T02:36:42;36.53;;;6.53;;
29712;SDS011;16623;53.632;10.016;2023-02-01T02:39:21;60.90;;;7.03;;
29712;SDS011;16623;53.632;10.016;2023-02-01T02:45:00;38.90;;;7.10;;
29712;SDS011;16623;53.632;10.016;2023-02-01T02:50:51;42.70;;;5.72;;
29712;SDS011;16623;53.632;10.016;2023-02-01T02:54:01;42.42;;;6.03;;
29712;SDS011;16623;53.632;10.016;2023-02-01T02:56:52;47.27;;;9.83;;
29712;SDS011;16623;53.632;10.016;2023-02-01T02:59:39;46.35;;;7.22;;
29712;SDS011;16623;53.632;10.016;2023-02-01T03:02:26;30.75;;;4.90;;
29712;SDS011;16623;53.632;10.016;2023-02-01T03:05:12;46.85;;;7.13;;
29712;SDS011;16623;53.632;10.016;2023-02-01T03:12:55;51.30;;;6.50;;
29712;SDS011;16623;53.632;10.016;2023-02-01T03:15:29;46.45;;;6.40;;
29712;SDS011;16623;53.632;10.016;2023-02-01T03:18:00;38.63;;;6.55;;
29712;SDS011;16623;53.632;10.016;2023-02-01T03:20:29;35.72;;;7.03;;
29712;SDS011;16623;53.632;10.016;2023-02-01T03:22:56;44.47;;;6.35;;
29712;SDS011;16623;53.632;10.016;2023-02-01T03:25:28;39.38;;;5.28;;
29712;SDS011;16623;53.632;10.016;2023-02-01T03:27:59;38.63;;;5.85;;
29712;SDS011;16623;53.632;10.016;2023-02-01T03:30:30;43.05;;;6.50;;
29712;SDS011;16623;53.632;10.016;2023-02-01T03:33:00;43.85;;;6.28;;
29712;SDS011;16623;53.632;10.016;2023-02-01T03:37:55;39.55;;;5.85;;
29712;SDS011;16623;53.632;10.016;2023-02-01T03:40:27;36.33;;;4.82;;
29712;SDS011;16623;53.632;10.016;2023-02-01T03:42:55;33.97;;;5.45;;
29712;SDS011;16623;53.632;10.016;2023-02-01T03:45:27;35.45;;;6.55;;
29712;SDS011;16623;53.632;10.016;2023-02-01T03:48:27;18.88;;;3.28;;
29712;SDS011;16623;53.632;10.016;2023-02-01T03:50:56;29.55;;;4.65;;
29712;SDS011;16623;53.632;10.016;2023-02-01T03:53:25;44.53;;;8.05;;
29712;SDS011;16623;53.632;10.016;2023-02-01T03:55:52;28.90;;;4.78;;
29712;SDS011;16623;53.632;10.016;2023-02-01T03:58:20;20.88;;;4.25;;
29712;SDS011;16623;53.632;10.016;2023-02-01T04:00:53;30.70;;;5.32;;
29712;SDS011;16623;53.632;10.016;2023-02-01T04:03:24;30.13;;;5.90;;
29712;SDS011;16623;53.632;10.016;2023-02-01T04:05:50;23.38;;;3.72;;
29712;SDS011;16623;53.632;10.016;2023-02-01T04:08:17;42.33;;;6.20;;
29712;SDS011;16623;53.632;10.016;2023-02-01T04:10:43;30.27;;;5.82;;
29712;SDS011;16623;53.632;10.016;2023-02-01T04:13:09;34.90;;;4.88;;
29712;SDS011;16623;53.632;10.016;2023-02-01T04:15:35;31.65;;;3.97;;
29712;SDS011;16623;53.632;10.016;2023-02-01T04:18:00;27.30;;;4.65;;
29712;SDS011;16623;53.632;10.016;2023-02-01T04:20:26;26.80;;;6.85;;
29712;SDS011;16623;53.632;10.016;2023-02-01T04:22:52;30.13;;;4.32;;
29712;SDS011;16623;53.632;10.016;2023-02-01T04:25:17;31.20;;;4.40;;
29712;SDS011;16623;53.632;10.016;2023-02-01T04:27:43;33.17;;;5.43;;
29712;SDS011;16623;53.632;10.016;2023-02-01T04:30:09;33.70;;;4.63;;
29712;SDS011;16623;53.632;10.016;2023-02-01T04:32:36;15.40;;;4.07;;
29712;SDS011;16623;53.632;10.016;2023-02-01T04:35:03;33.75;;;5.78;;
29712;SDS011;16623;53.632;10.016;2023-02-01T04:37:28;31.65;;;5.30;;
29712;SDS011;16623;53.632;10.016;2023-02-01T04:39:57;34.40;;;5.28;;
29712;SDS011;16623;53.632;10.016;2023-02-01T04:42:22;23.33;;;4.68;;
29712;SDS011;16623;53.632;10.016;2023-02-01T04:44:48;14.65;;;3.65;;
29712;SDS011;16623;53.632;10.016;2023-02-01T04:47:13;29.00;;;3.92;;
29712;SDS011;16623;53.632;10.016;2023-02-01T04:49:40;24.25;;;4.18;;
29712;SDS011;16623;53.632;10.016;2023-02-01T04:52:06;17.80;;;2.95;;
29712;SDS011;16623;53.632;10.016;2023-02-01T04:54:32;15.50;;;3.35;;
29712;SDS011;16623;53.632;10.016;2023-02-01T04:56:57;25.13;;;3.72;;
29712;SDS011;16623;53.632;10.016;2023-02-01T04:59:23;13.27;;;3.38;;
29712;SDS011;16623;53.632;10.016;2023-02-01T05:01:48;16.27;;;2.70;;
29712;SDS011;16623;53.632;10.016;2023-02-01T05:04:14;18.85;;;3.42;;
29712;SDS011;16623;53.632;10.016;2023-02-01T05:06:40;19.40;;;5.70;;
29712;SDS011;16623;53.632;10.016;2023-02-01T05:09:05;19.85;;;3.67;;
29712;SDS011;16623;53.632;10.016;2023-02-01T05:11:31;17.83;;;3.42;;
29712;SDS011;16623;53.632;10.016;2023-02-01T05:14:15;9.77;;;3.03;;
29712;SDS011;16623;53.632;10.016;2023-02-01T05:16:40;15.80;;;2.13;;
29712;SDS011;16623;53.632;10.016;2023-02-01T05:19:06;10.88;;;2.13;;
29712;SDS011;16623;53.632;10.016;2023-02-01T05:21:31;7.80;;;2.08;;
29712;SDS011;16623;53.632;10.016;2023-02-01T05:23:57;6.85;;;1.52;;
29712;SDS011;16623;53.632;10.016;2023-02-01T05:26:35;8.50;;;1.75;;
29712;SDS011;16623;53.632;10.016;2023-02-01T05:29:01;4.68;;;1.20;;
29712;SDS011;16623;53.632;10.016;2023-02-01T05:31:27;8.32;;;1.52;;
29712;SDS011;16623;53.632;10.016;2023-02-01T05:33:52;10.57;;;1.30;;
29712;SDS011;16623;53.632;10.016;2023-02-01T05:36:18;3.78;;;1.33;;
29712;SDS011;16623;53.632;10.016;2023-02-01T05:38:43;3.55;;;0.90;;
29712;SDS011;16623;53.632;10.016;2023-02-01T05:41:09;5.53;;;0.90;;
29712;SDS011;16623;53.632;10.016;2023-02-01T05:43:34;7.93;;;1.42;;
29712;SDS011;16623;53.632;10.016;2023-02-01T05:46:00;5.40;;;1.10;;
29712;SDS011;16623;53.632;10.016;2023-02-01T05:48:26;4.82;;;1.30;;
29712;SDS011;16623;53.632;10.016;2023-02-01T05:50:51;2.50;;;1.30;;
29712;SDS011;16623;53.632;10.016;2023-02-01T05:53:17;2.45;;;1.15;;
29712;SDS011;16623;53.632;10.016;2023-02-01T05:55:43;4.30;;;1.20;;
29712;SDS011;16623;53.632;10.016;2023-02-01T05:58:08;3.90;;;2.53;;
29712;SDS011;16623;53.632;10.016;2023-02-01T06:00:34;5.40;;;1.85;;
29712;SDS011;16623;53.632;10.016;2023-02-01T06:03:00;6.07;;;1.45;;
29712;SDS011;16623;53.632;10.016;2023-02-01T06:05:26;4.53;;;1.10;;
29712;SDS011;16623;53.632;10.016;2023-02-01T06:07:52;4.28;;;1.00;;
29712;SDS011;16623;53.632;10.016;2023-02-01T06:10:17;5.18;;;0.90;;
29712;SDS011;16623;53.632;10.016;2023-02-01T06:12:43;1.88;;;1.00;;
29712;SDS011;16623;53.632;10.016;2023-02-01T06:15:10;2.25;;;1.00;;
29712;SDS011;16623;53.632;10.016;2023-02-01T06:17:36;6.78;;;1.33;;
29712;SDS011;16623;53.632;10.016;2023-02-01T06:20:02;4.07;;;1.20;;
29712;SDS011;16623;53.632;10.016;2023-02-01T06:22:28;9.38;;;1.42;;
29712;SDS011;16623;53.632;10.016;2023-02-01T06:24:54;7.70;;;1.35;;
29712;SDS011;16623;53.632;10.016;2023-02-01T06:27:19;5.07;;;2.20;;
29712;SDS011;16623;53.632;10.016;2023-02-01T06:29:45;6.03;;;1.83;;
29712;SDS011;16623;53.632;10.016;2023-02-01T06:32:10;9.10;;;1.80;;
29712;SDS011;16623;53.632;10.016;2023-02-01T06:34:36;8.43;;;2.15;;
29712;SDS011;16623;53.632;10.016;2023-02-01T06:37:02;7.97;;;1.90;;
29712;SDS011;16623;53.632;10.016;2023-02-01T06:39:27;10.93;;;2.83;;
29712;SDS011;16623;53.632;10.016;2023-02-01T06:41:53;18.85;;;2.70;;
29712;SDS011;16623;53.632;10.016;2023-02-01T06:44:19;9.98;;;1.88;;
29712;SDS011;16623;53.632;10.016;2023-02-01T06:46:45;13.30;;;2.15;;
29712;SDS011;16623;53.632;10.016;2023-02-01T06:49:11;18.48;;;3.17;;
29712;SDS011;16623;53.632;10.016;2023-02-01T06:51:36;21.80;;;2.42;;
29712;SDS011;16623;53.632;10.016;2023-02-01T06:54:02;13.48;;;5.75;;
29712;SDS011;16623;53.632;10.016;2023-02-01T06:56:28;11.80;;;2.20;;
29712;SDS011;16623;53.632;10.016;2023-02-01T06:58:56;25.17;;;3.78;;
29712;SDS011;16623;53.632;10.016;2023-02-01T07:01:21;17.45;;;3.08;;
29712;SDS011;16623;53.632;10.016;2023-02-01T07:03:47;13.82;;;3.72;;
29712;SDS011;16623;53.632;10.016;2023-02-01T07:06:14;27.45;;;3.13;;
29712;SDS011;16623;53.632;10.016;2023-02-01T07:08:40;18.00;;;4.70;;
29712;SDS011;16623;53.632;10.016;2023-02-01T07:11:06;24.73;;;3.63;;
29712;SDS011;16623;53.632;10.016;2023-02-01T07:13:33;32.17;;;4.88;;
29712;SDS011;16623;53.632;10.016;2023-02-01T07:16:03;22.23;;;3.72;;
29712;SDS011;16623;53.632;10.016;2023-02-01T07:18:31;25.05;;;3.25;;
29712;SDS011;16623;53.632;10.016;2023-02-01T07:20:57;20.33;;;3.53;;
29712;SDS011;16623;53.632;10.016;2023-02-01T07:23:23;32.08;;;5.20;;
29712;SDS011;16623;53.632;10.016;2023-02-01T07:25:53;35.72;;;7.20;;
29712;SDS011;16623;53.632;10.016;2023-02-01T07:28:22;22.00;;;5.43;;
29712;SDS011;16623;53.632;10.016;2023-02-01T07:30:48;32.72;;;5.13;;
29712;SDS011;16623;53.632;10.016;2023-02-01T07:33:25;24.20;;;4.72;;
29712;SDS011;16623;53.632;10.016;2023-02-01T07:35:51;38.53;;;4.65;;
29712;SDS011;16623;53.632;10.016;2023-02-01T07:38:16;28.35;;;4.65;;
29712;SDS011;16623;53.632;10.016;2023-02-01T07:40:42;33.38;;;4.80;;
29712;SDS011;16623;53.632;10.016;2023-02-01T07:43:08;35.28;;;5.53;;
29712;SDS011;16623;53.632;10.016;2023-02-01T07:45:34;26.50;;;4.32;;
29712;SDS011;16623;53.632;10.016;2023-02-01T07:48:01;25.05;;;3.72;;
29712;SDS011;16623;53.632;10.016;2023-02-01T07:50:27;28.20;;;4.07;;
29712;SDS011;16623;53.632;10.016;2023-02-01T07:52:52;41.40;;;6.18;;
29712;SDS011;16623;53.632;10.016;2023-02-01T07:55:18;34.25;;;4.82;;
29712;SDS011;16623;53.632;10.016;2023-02-01T07:57:44;37.30;;;5.43;;
29712;SDS011;16623;53.632;10.016;2023-02-01T08:00:10;19.15;;;6.47;;
29712;SDS011;16623;53.632;10.016;2023-02-01T08:05:22;40.65;;;4.90;;
29712;SDS011;16623;53.632;10.016;2023-02-01T08:07:48;42.80;;;6.57;;
29712;SDS011;16623;53.632;10.016;2023-02-01T08:10:15;31.55;;;5.70;;
29712;SDS011;16623;53.632;10.016;2023-02-01T08:12:43;45.88;;;7.45;;
29712;SDS011;16623;53.632;10.016;2023-02-01T08:15:12;42.72;;;6.35;;
29712;SDS011;16623;53.632;10.016;2023-02-01T08:17:47;45.92;;;7.35;;
29712;SDS011;16623;53.632;10.016;2023-02-01T08:20:13;45.70;;;7.30;;
29712;SDS011;16623;53.632;10.016;2023-02-01T08:22:39;40.42;;;6.07;;
29712;SDS011;16623;53.632;10.016;2023-02-01T08:25:05;39.90;;;5.30;;
29712;SDS011;16623;53.632;10.016;2023-02-01T08:27:34;41.30;;;5.80;;
29712;SDS011;16623;53.632;10.016;2023-02-01T08:30:00;41.33;;;6.70;;
29712;SDS011;16623;53.632;10.016;2023-02-01T08:32:27;41.90;;;6.88;;
29712;SDS011;16623;53.632;10.016;2023-02-01T08:34:52;41.35;;;8.13;;
29712;SDS011;16623;53.632;10.016;2023-02-01T08:37:18;41.58;;;6.47;;
29712;SDS011;16623;53.632;10.016;2023-02-01T08:39:43;34.00;;;5.68;;
29712;SDS011;16623;53.632;10.016;2023-02-01T08:42:10;30.30;;;6.50;;
29712;SDS011;16623;53.632;10.016;2023-02-01T08:44:54;38.10;;;4.72;;
29712;SDS011;16623;53.632;10.016;2023-02-01T08:47:20;26.13;;;4.43;;
29712;SDS011;16623;53.632;10.016;2023-02-01T08:49:46;19.92;;;3.45;;
29712;SDS011;16623;53.632;10.016;2023-02-01T08:52:11;14.18;;;2.90;;
29712;SDS011;16623;53.632;10.016;2023-02-01T08:54:37;24.13;;;3.13;;
29712;SDS011;16623;53.632;10.016;2023-02-01T08:57:04;20.10;;;5.03;;
29712;SDS011;16623;53.632;10.016;2023-02-01T08:59:29;17.17;;;2.67;;
29712;SDS011;16623;53.632;10.016;2023-02-01T09:01:55;17.30;;;3.22;;
29712;SDS011;16623;53.632;10.016;2023-02-01T09:04:21;17.88;;;4.78;;
29712;SDS011;16623;53.632;10.016;2023-02-01T09:06:46;22.70;;;4.30;;
29712;SDS011;16623;53.632;10.016;2023-02-01T09:09:12;22.65;;;4.40;;
29712;SDS011;16623;53.632;10.016;2023-02-01T09:11:37;23.63;;;4.60;;
29712;SDS011;16623;53.632;10.016;2023-02-01T09:14:03;35.20;;;4.55;;
29712;SDS011;16623;53.632;10.016;2023-02-01T09:16:29;22.55;;;4.38;;
29712;SDS011;16623;53.632;10.016;2023-02-01T09:18:54;31.15;;;6.38;;
29712;SDS011;16623;53.632;10.016;2023-02-01T09:21:20;29.45;;;4.90;;
29712;SDS011;16623;53.632;10.016;2023-02-01T09:23:45;26.33;;;4.90;;
29712;SDS011;16623;53.632;10.016;2023-02-01T09:26:13;37.15;;;5.32;;
29712;SDS011;16623;53.632;10.016;2023-02-01T09:28:39;37.25;;;4.90;;
29712;SDS011;16623;53.632;10.016;2023-02-01T09:31:05;29.25;;;4.90;;
29712;SDS011;16623;53.632;10.016;2023-02-01T09:33:30;13.95;;;3.10;;
29712;SDS011;16623;53.632;10.016;2023-02-01T09:35:57;22.85;;;4.57;;
29712;SDS011;16623;53.632;10.016;2023-02-01T09:38:23;35.10;;;4.80;;
29712;SDS011;16623;53.632;10.016;2023-02-01T09:40:50;21.38;;;4.68;;
29712;SDS011;16623;53.632;10.016;2023-02-01T09:43:29;43.63;;;9.43;;
29712;SDS011;16623;53.632;10.016;2023-02-01T09:46:26;26.33;;;5.15;;
29712;SDS011;16623;53.632;10.016;2023-02-01T09:48:54;37.90;;;6.70;;
29712;SDS011;16623;53.632;10.016;2023-02-01T09:51:27;35.95;;;6.50;;
29712;SDS011;16623;53.632;10.016;2023-02-01T09:56:27;33.40;;;7.28;;
29712;SDS011;16623;53.632;10.016;2023-02-01T10:01:48;38.20;;;5.20;;
29712;SDS011;16623;53.632;10.016;2023-02-01T10:04:14;27.17;;;5.18;;
29712;SDS011;16623;53.632;10.016;2023-02-01T10:06:51;32.08;;;4.10;;
29712;SDS011;16623;53.632;10.016;2023-02-01T10:28:46;31.67;;;5.07;;
29712;SDS011;16623;53.632;10.016;2023-02-01T10:31:25;35.13;;;5.57;;
29712;SDS011;16623;53.632;10.016;2023-02-01T10:33:56;54.25;;;5.32;;
29712;SDS011;16623;53.632;10.016;2023-02-01T10:39:00;34.63;;;4.60;;
29712;SDS011;16623;53.632;10.016;2023-02-01T10:41:33;16.55;;;3.47;;
29712;SDS011;16623;53.632;10.016;2023-02-01T10:44:00;30.75;;;4.57;;
29712;SDS011;16623;53.632;10.016;2023-02-01T10:46:29;36.38;;;5.72;;
29712;SDS011;16623;53.632;10.016;2023-02-01T10:49:00;26.52;;;4.18;;
29712;SDS011;16623;53.632;10.016;2023-02-01T10:51:40;26.40;;;5.50;;
29712;SDS011;16623;53.632;10.016;2023-02-01T10:54:18;28.80;;;6.18;;
29712;SDS011;16623;53.632;10.016;2023-02-01T10:56:46;33.17;;;4.53;;
29712;SDS011;16623;53.632;10.016;2023-02-01T10:59:17;27.92;;;4.35;;
29712;SDS011;16623;53.632;10.016;2023-02-01T11:01:45;37.33;;;5.88;;
29712;SDS011;16623;53.632;10.016;2023-02-01T11:04:18;43.28;;;6.00;;
29712;SDS011;16623;53.632;10.016;2023-02-01T11:06:45;22.73;;;5.05;;
29712;SDS011;16623;53.632;10.016;2023-02-01T11:09:24;23.20;;;3.55;;
29712;SDS011;16623;53.632;10.016;2023-02-01T11:14:16;19.75;;;3.28;;
29712;SDS011;16623;53.632;10.016;2023-02-01T11:17:28;13.43;;;3.60;;
29712;SDS011;16623;53.632;10.016;2023-02-01T11:19:46;18.20;;;3.85;;
29712;SDS011;16623;53.632;10.016;2023-02-01T11:22:20;36.38;;;4.63;;
29712;SDS011;16623;53.632;10.016;2023-02-01T11:24:46;24.65;;;4.68;;
29712;SDS011;16623;53.632;10.016;2023-02-01T11:27:16;19.08;;;3.33;;
29712;SDS011;16623;53.632;10.016;2023-02-01T11:29:46;28.80;;;5.50;;
29712;SDS011;16623;53.632;10.016;2023-02-01T11:32:16;27.05;;;5.18;;
29712;SDS011;16623;53.632;10.016;2023-02-01T11:34:45;30.98;;;4.43;;
29712;SDS011;16623;53.632;10.016;2023-02-01T11:37:17;26.40;;;4.03;;
29712;SDS011;16623;53.632;10.016;2023-02-01T11:40:22;29.38;;;5.20;;
29712;SDS011;16623;53.632;10.016;2023-02-01T11:42:34;25.02;;;4.30;;
29712;SDS011;16623;53.632;10.016;2023-02-01T11:45:16;23.45;;;3.80;;
29712;SDS011;16623;53.632;10.016;2023-02-01T11:47:51;26.67;;;4.45;;
29712;SDS011;16623;53.632;10.016;2023-02-01T11:50:26;29.80;;;6.28;;
29712;SDS011;16623;53.632;10.016;2023-02-01T11:53:09;24.60;;;4.45;;
29712;SDS011;16623;53.632;10.016;2023-02-01T11:58:34;22.70;;;4.55;;
29712;SDS011;16623;53.632;10.016;2023-02-01T12:01:11;24.80;;;4.57;;
29712;SDS011;16623;53.632;10.016;2023-02-01T12:25:32;12.00;;;2.70;;
29712;SDS011;16623;53.632;10.016;2023-02-01T12:33:40;15.73;;;3.05;;
29712;SDS011;16623;53.632;10.016;2023-02-01T12:44:32;6.65;;;2.22;;
29712;SDS011;16623;53.632;10.016;2023-02-01T12:49:47;5.93;;;1.40;;
29712;SDS011;16623;53.632;10.016;2023-02-01T12:52:37;6.78;;;1.20;;
29712;SDS011;16623;53.632;10.016;2023-02-01T12:58:12;1.30;;;0.65;;
29712;SDS011;16623;53.632;10.016;2023-02-01T13:01:02;3.22;;;1.05;;
29712;SDS011;16623;53.632;10.016;2023-02-01T13:03:37;13.23;;;3.13;;
29712;SDS011;16623;53.632;10.016;2023-02-01T13:06:29;5.20;;;1.17;;
29712;SDS011;16623;53.632;10.016;2023-02-01T13:11:50;3.58;;;0.88;;
29712;SDS011;16623;53.632;10.016;2023-02-01T13:17:00;2.70;;;0.93;;
29712;SDS011;16623;53.632;10.016;2023-02-01T13:20:22;3.08;;;1.02;;
29712;SDS011;16623;53.632;10.016;2023-02-01T13:22:36;6.53;;;2.05;;
29712;SDS011;16623;53.632;10.016;2023-02-01T13:25:19;3.67;;;0.80;;
29712;SDS011;16623;53.632;10.016;2023-02-01T13:28:18;5.47;;;0.88;;
29712;SDS011;16623;53.632;10.016;2023-02-01T13:31:00;3.20;;;1.00;;
29712;SDS011;16623;53.632;10.016;2023-02-01T13:41:58;1.80;;;0.75;;
29712;SDS011;16623;53.632;10.016;2023-02-01T13:44:31;5.13;;;1.00;;
29712;SDS011;16623;53.632;10.016;2023-02-01T13:47:01;8.68;;;1.25;;
29712;SDS011;16623;53.632;10.016;2023-02-01T13:49:37;3.80;;;1.08;;
29712;SDS011;16623;53.632;10.016;2023-02-01T13:52:04;4.97;;;1.80;;
29712;SDS011;16623;53.632;10.016;2023-02-01T13:54:31;4.20;;;1.30;;
29712;SDS011;16623;53.632;10.016;2023-02-01T13:56:59;6.68;;;1.35;;
29712;SDS011;16623;53.632;10.016;2023-02-01T13:59:36;6.78;;;1.38;;
29712;SDS011;16623;53.632;10.016;2023-02-01T14:05:08;3.00;;;1.08;;
29712;SDS011;16623;53.632;10.016;2023-02-01T14:07:35;5.07;;;1.30;;
29712;SDS011;16623;53.632;10.016;2023-02-01T14:13:12;9.93;;;1.92;;
29712;SDS011;16623;53.632;10.016;2023-02-01T14:23:41;10.50;;;1.55;;
29712;SDS011;16623;53.632;10.016;2023-02-01T14:26:10;8.75;;;1.58;;
29712;SDS011;16623;53.632;10.016;2023-02-01T14:28:41;8.93;;;1.50;;
29712;SDS011;16623;53.632;10.016;2023-02-01T14:31:17;6.07;;;1.52;;
29712;SDS011;16623;53.632;10.016;2023-02-01T14:34:15;16.15;;;1.90;;
29712;SDS011;16623;53.632;10.016;2023-02-01T14:36:55;14.43;;;2.25;;
29712;SDS011;16623;53.632;10.016;2023-02-01T14:39:32;7.10;;;1.85;;
29712;SDS011;16623;53.632;10.016;2023-02-01T14:42:12;12.85;;;2.53;;
29712;SDS011;16623;53.632;10.016;2023-02-01T14:44:44;9.27;;;2.05;;
29712;SDS011;16623;53.632;10.016;2023-02-01T15:06:25;7.28;;;1.67;;
29712;SDS011;16623;53.632;10.016;2023-02-01T15:08:57;11.20;;;1.95;;
29712;SDS011;16623;53.632;10.016;2023-02-01T15:11:27;20.48;;;2.75;;
29712;SDS011;16623;53.632;10.016;2023-02-01T15:13:54;16.30;;;2.45;;
29712;SDS011;16623;53.632;10.016;2023-02-01T15:16:22;16.95;;;4.00;;
29712;SDS011;16623;53.632;10.016;2023-02-01T15:18:49;15.35;;;2.85;;
29712;SDS011;16623;53.632;10.016;2023-02-01T15:21:16;16.58;;;2.85;;
29712;SDS011;16623;53.632;10.016;2023-02-01T15:23:47;23.35;;;3.72;;
29712;SDS011;16623;53.632;10.016;2023-02-01T15:26:34;18.30;;;3.22;;
29712;SDS011;16623;53.632;10.016;2023-02-01T15:28:59;18.52;;;2.85;;
29712;SDS011;16623;53.632;10.016;2023-02-01T15:31:39;18.08;;;2.88;;
29712;SDS011;16623;53.632;10.016;2023-02-01T15:34:10;22.83;;;3.85;;
29712;SDS011;16623;53.632;10.016;2023-02-01T15:36:36;22.00;;;3.10;;
29712;SDS011;16623;53.632;10.016;2023-02-01T15:41:37;18.60;;;5.18;;
29712;SDS011;16623;53.632;10.016;2023-02-01T15:45:04;25.63;;;3.80;;
29712;SDS011;16623;53.632;10.016;2023-02-01T15:47:07;25.52;;;4.30;;
29712;SDS011;16623;53.632;10.016;2023-02-01T15:49:54;23.20;;;2.88;;
29712;SDS011;16623;53.632;10.016;2023-02-01T15:52:36;18.45;;;3.60;;
29712;SDS011;16623;53.632;10.016;2023-02-01T15:55:08;24.50;;;3.42;;
29712;SDS011;16623;53.632;10.016;2023-02-01T15:57:45;24.02;;;5.15;;
29712;SDS011;16623;53.632;10.016;2023-02-01T16:03:03;26.02;;;3.97;;
29712;SDS011;16623;53.632;10.016;2023-02-01T16:05:37;33.47;;;5.05;;
29712;SDS011;16623;53.632;10.016;2023-02-01T16:10:41;29.42;;;4.93;;
29712;SDS011;16623;53.632;10.016;2023-02-01T16:13:09;26.98;;;4.07;;
29712;SDS011;16623;53.632;10.016;2023-02-01T16:15:35;25.38;;;4.18;;
29712;SDS011;16623;53.632;10.016;2023-02-01T16:18:02;35.58;;;5.85;;
29712;SDS011;16623;53.632;10.016;2023-02-01T16:20:28;32.42;;;4.97;;
29712;SDS011;16623;53.632;10.016;2023-02-01T16:22:54;37.67;;;4.43;;
29712;SDS011;16623;53.632;10.016;2023-02-01T16:25:20;26.50;;;4.22;;
29712;SDS011;16623;53.632;10.016;2023-02-01T16:27:46;36.78;;;5.85;;
29712;SDS011;16623;53.632;10.016;2023-02-01T16:30:11;23.00;;;4.18;;
29712;SDS011;16623;53.632;10.016;2023-02-01T16:32:37;15.10;;;4.13;;
29712;SDS011;16623;53.632;10.016;2023-02-01T16:35:04;26.27;;;4.15;;
29712;SDS011;16623;53.632;10.016;2023-02-01T16:37:35;38.22;;;8.15;;
29712;SDS011;16623;53.632;10.016;2023-02-01T16:40:01;33.50;;;4.82;;
29712;SDS011;16623;53.632;10.016;2023-02-01T16:42:27;34.22;;;5.03;;
29712;SDS011;16623;53.632;10.016;2023-02-01T16:44:55;43.22;;;5.57;;
29712;SDS011;16623;53.632;10.016;2023-02-01T16:47:21;32.50;;;5.88;;
29712;SDS011;16623;53.632;10.016;2023-02-01T16:49:47;39.28;;;5.18;;
29712;SDS011;16623;53.632;10.016;2023-02-01T16:52:17;41.47;;;4.80;;
29712;SDS011;16623;53.632;10.016;2023-02-01T16:54:50;33.78;;;5.72;;
29712;SDS011;16623;53.632;10.016;2023-02-01T16:57:16;29.27;;;5.35;;
29712;SDS011;16623;53.632;10.016;2023-02-01T16:59:44;37.90;;;6.38;;
29712;SDS011;16623;53.632;10.016;2023-02-01T17:02:13;34.75;;;6.03;;
29712;SDS011;16623;53.632;10.016;2023-02-01T17:04:41;35.42;;;6.60;;
29712;SDS011;16623;53.632;10.016;2023-02-01T17:07:12;44.55;;;6.60;;
29712;SDS011;16623;53.632;10.016;2023-02-01T17:09:40;47.53;;;6.90;;
29712;SDS011;16623;53.632;10.016;2023-02-01T17:12:05;43.67;;;6.93;;
29712;SDS011;16623;53.632;10.016;2023-02-01T17:14:39;44.35;;;7.90;;
29712;SDS011;16623;53.632;10.016;2023-02-01T17:17:06;33.90;;;5.38;;
29712;SDS011;16623;53.632;10.016;2023-02-01T17:19:33;43.00;;;5.70;;
29712;SDS011;16623;53.632;10.016;2023-02-01T17:21:58;33.28;;;6.53;;